Terminal Aerodrome Forecast
Issued by NWS

Home | Current Version | Previous Version | Text Only | Print | Product List | Glossary On
Versions: 1 2 3 4 5 6 7 8 9 10 11 12 13 14 15 16 17
000
FTUS41 KBTV 031126
TAFSLK
TAF
KSLK 031126Z 0312/0412 00000KT P6SM SKC
     FM031500 21006KT P6SM FEW035 BKN110
     FM032000 20007KT 2SM BR BKN008 OVC020
     FM040200 20012G21KT 1SM -SN BR SCT003 OVC008
     FM040700 23013G23KT 5SM -SN BR SCT010 OVC015
     FM041000 24010G28KT 6SM -FZDZ BR SCT015 OVC020=

USA.gov is the U.S. government's official web portal to all federal, state and local government web resources and services.